createdAt,value
2023-02-19T00:01:26.677Z,9.17
2023-02-19T00:04:05.761Z,9.23
2023-02-19T00:06:33.772Z,11.50
2023-02-19T00:09:01.091Z,9.47
2023-02-19T00:11:30.632Z,9.50
2023-02-19T00:13:59.291Z,9.40
2023-02-19T00:16:29.339Z,7.77
2023-02-19T00:18:57.840Z,9.07
2023-02-19T00:21:25.395Z,10.63
2023-02-19T00:23:58.396Z,11.23
2023-02-19T00:26:25.445Z,11.80
2023-02-19T00:28:55.505Z,10.63
2023-02-19T00:31:28.753Z,11.83
2023-02-19T00:33:58.969Z,13.03
2023-02-19T00:36:26.957Z,12.27
2023-02-19T00:38:54.068Z,12.27
2023-02-19T00:41:23.177Z,13.93
2023-02-19T00:44:02.123Z,10.57
2023-02-19T00:46:31.728Z,11.50
2023-02-19T00:48:58.979Z,13.53
2023-02-19T00:51:29.334Z,8.73
2023-02-19T00:53:56.125Z,8.67
2023-02-19T00:56:22.874Z,10.80
2023-02-19T00:58:50.530Z,8.30
2023-02-19T01:01:18.205Z,7.77
2023-02-19T01:03:45.161Z,7.50
2023-02-19T01:06:14.640Z,6.63
2023-02-19T01:08:41.688Z,6.07
2023-02-19T01:11:09.654Z,6.80
2023-02-19T01:13:37.548Z,6.87
2023-02-19T01:16:17.356Z,5.70
2023-02-19T01:18:44.840Z,6.07
2023-02-19T01:21:23.608Z,6.67
2023-02-19T01:23:51.590Z,7.60
2023-02-19T01:26:21.561Z,7.67
2023-02-19T01:28:48.982Z,8.40
2023-02-19T01:31:19.492Z,7.57
2023-02-19T01:33:58.094Z,8.07
2023-02-19T01:36:25.760Z,8.57
2023-02-19T01:38:52.739Z,7.93
2023-02-19T01:41:22.538Z,9.80
2023-02-19T01:44:07.799Z,12.73
2023-02-19T01:46:39.519Z,16.13
2023-02-19T01:49:09.242Z,13.40
2023-02-19T01:51:39.124Z,16.00
2023-02-19T01:54:08.401Z,13.93
2023-02-19T01:56:38.397Z,15.67
2023-02-19T01:59:06.709Z,15.63
2023-02-19T02:01:33.595Z,17.37
2023-02-19T02:04:00.969Z,19.07
2023-02-19T02:06:39.258Z,20.10
2023-02-19T02:09:32.668Z,14.30
2023-02-19T02:11:59.324Z,14.30
2023-02-19T02:14:31.223Z,15.60
2023-02-19T02:17:22.458Z,16.83
2023-02-19T02:20:27.036Z,17.23
2023-02-19T02:23:13.544Z,16.00
2023-02-19T02:25:52.428Z,16.03
2023-02-19T02:28:34.968Z,17.20
2023-02-19T02:31:06.199Z,16.37
2023-02-19T02:33:39.560Z,16.00
2023-02-19T02:36:10.821Z,16.43
2023-02-19T02:38:40.677Z,15.80
2023-02-19T02:41:08.043Z,20.73
2023-02-19T02:43:34.767Z,17.93
2023-02-19T02:46:01.511Z,17.43
2023-02-19T02:48:37.056Z,19.13
2023-02-19T02:51:27.863Z,21.30
2023-02-19T02:54:22.845Z,17.17
2023-02-19T02:56:50.484Z,24.13
2023-02-19T02:59:22.197Z,19.07
2023-02-19T03:02:14.222Z,22.03
2023-02-19T03:05:21.177Z,19.00
2023-02-19T03:07:59.471Z,18.50
2023-02-19T03:10:35.145Z,20.93
2023-02-19T03:13:24.804Z,16.83
2023-02-19T03:16:20.598Z,20.70
2023-02-19T03:19:11.084Z,22.80
2023-02-19T03:21:39.553Z,22.47
2023-02-19T03:24:28.637Z,21.70
2023-02-19T03:26:56.727Z,24.00
2023-02-19T03:29:26.630Z,24.30
2023-02-19T03:31:58.369Z,26.67
2023-02-19T03:34:56.754Z,21.53
2023-02-19T03:37:53.040Z,24.07
2023-02-19T03:40:21.794Z,21.47
2023-02-19T03:43:16.627Z,25.43
2023-02-19T03:46:06.763Z,25.50
2023-02-19T03:48:35.948Z,23.67
2023-02-19T03:51:24.610Z,23.70
2023-02-19T03:54:14.185Z,26.27
2023-02-19T03:56:50.162Z,22.93
2023-02-19T03:59:38.238Z,23.10
2023-02-19T04:02:16.052Z,20.80
2023-02-19T04:04:55.029Z,19.40
2023-02-19T04:07:22.755Z,21.20
2023-02-19T04:09:51.226Z,21.77
2023-02-19T04:12:19.344Z,19.93
2023-02-19T04:15:01.476Z,21.93
2023-02-19T04:17:39.006Z,24.00
2023-02-19T04:20:10.061Z,20.97
2023-02-19T04:22:38.321Z,25.23
2023-02-19T04:25:05.512Z,24.77
2023-02-19T04:27:32.827Z,19.93
2023-02-19T04:29:59.578Z,18.07
2023-02-19T04:32:26.396Z,18.53
2023-02-19T04:34:54.375Z,23.73
2023-02-19T04:37:21.240Z,20.87
2023-02-19T04:39:47.924Z,23.30
2023-02-19T04:42:14.644Z,25.83
2023-02-19T04:44:41.330Z,18.40
2023-02-19T04:47:08.093Z,22.40
2023-02-19T04:49:34.809Z,21.37
2023-02-19T04:52:01.520Z,19.80
2023-02-19T04:54:28.272Z,16.03
2023-02-19T04:56:54.943Z,16.10
2023-02-19T04:59:21.711Z,17.13
2023-02-19T05:01:48.485Z,17.20
2023-02-19T05:04:15.251Z,15.77
2023-02-19T05:06:42.046Z,18.00
2023-02-19T05:09:09.028Z,20.27
2023-02-19T05:11:35.767Z,17.57
2023-02-19T05:14:02.545Z,22.73
2023-02-19T05:16:29.366Z,18.60
2023-02-19T05:18:56.108Z,17.60
2023-02-19T05:21:22.863Z,17.30
2023-02-19T05:23:49.562Z,16.57
2023-02-19T05:26:18.907Z,20.07
2023-02-19T05:28:51.240Z,13.87
2023-02-19T05:31:18.584Z,12.10
2023-02-19T05:33:48.223Z,11.40
2023-02-19T05:36:15.034Z,12.30
2023-02-19T05:38:42.491Z,19.20
2023-02-19T05:41:15.392Z,11.97
2023-02-19T05:43:43.938Z,12.83
2023-02-19T05:46:12.874Z,13.33
2023-02-19T05:48:39.992Z,15.43
2023-02-19T05:51:09.805Z,14.90
2023-02-19T05:53:37.207Z,19.87
2023-02-19T05:56:04.676Z,14.60
2023-02-19T05:58:32.171Z,18.83
2023-02-19T06:00:58.840Z,17.83
2023-02-19T06:03:26.107Z,16.70
2023-02-19T06:05:52.880Z,16.37
2023-02-19T06:08:19.604Z,26.60
2023-02-19T06:10:46.432Z,18.70
2023-02-19T06:13:13.186Z,17.23
2023-02-19T06:15:39.957Z,17.17
2023-02-19T06:18:06.730Z,25.80
2023-02-19T06:20:33.491Z,15.87
2023-02-19T06:23:00.320Z,14.60
2023-02-19T06:25:27.115Z,16.33
2023-02-19T06:27:53.849Z,18.03
2023-02-19T06:30:21.005Z,17.13
2023-02-19T06:32:47.758Z,20.30
2023-02-19T06:35:14.490Z,19.30
2023-02-19T06:37:41.240Z,19.50
2023-02-19T06:40:08.551Z,22.93
2023-02-19T06:42:35.303Z,16.70
2023-02-19T06:45:02.047Z,14.40
2023-02-19T06:47:32.387Z,19.50
2023-02-19T06:49:59.836Z,17.13
2023-02-19T06:52:27.781Z,13.93
2023-02-19T06:54:54.539Z,17.33
2023-02-19T06:57:21.275Z,15.90
2023-02-19T06:59:48.008Z,15.67
2023-02-19T07:02:14.793Z,18.43
2023-02-19T07:04:41.443Z,17.77
2023-02-19T07:07:11.822Z,17.13
2023-02-19T07:09:38.521Z,16.23
2023-02-19T07:12:05.658Z,17.90
2023-02-19T07:14:32.424Z,13.07
2023-02-19T07:16:59.143Z,21.00
2023-02-19T07:19:25.794Z,17.03
